createdAt,value
2017-11-01T04:43:46.830Z,13.13
2017-11-01T04:46:13.668Z,14.10
2017-11-01T04:48:40.529Z,25.50
2017-11-01T04:51:10.342Z,16.43
2017-11-01T04:53:37.231Z,13.50
2017-11-01T04:56:04.072Z,15.57
2017-11-01T04:58:30.966Z,21.40
2017-11-01T05:00:58.575Z,10.07
2017-11-01T05:03:26.233Z,17.60
2017-11-01T05:05:53.120Z,15.80
2017-11-01T05:08:25.727Z,10.20
2017-11-01T05:10:55.362Z,14.03
2017-11-01T05:13:22.207Z,20.10
2017-11-01T05:15:49.048Z,17.27
2017-11-01T05:18:15.934Z,26.23
2017-11-01T05:20:42.779Z,18.63
2017-11-01T05:23:09.642Z,19.63
2017-11-01T05:25:43.029Z,23.50
2017-11-01T05:28:12.562Z,17.70
2017-11-01T05:30:39.405Z,15.63
2017-11-01T05:33:06.289Z,19.13
2017-11-01T05:35:33.144Z,22.60
2017-11-01T05:37:59.966Z,5.90
2017-11-01T05:40:26.836Z,10.60
2017-11-01T05:42:53.693Z,0.87
2017-11-01T05:45:20.516Z,8.73
2017-11-01T05:47:47.428Z,14.27
2017-11-01T05:50:14.275Z,16.10
2017-11-01T05:52:41.503Z,15.43
2017-11-01T05:55:08.380Z,15.87
2017-11-01T05:57:35.262Z,7.40
2017-11-01T06:00:02.098Z,11.03
2017-11-01T06:02:28.995Z,7.53
2017-11-01T06:04:55.844Z,6.97
2017-11-01T06:07:22.815Z,10.80
2017-11-01T06:09:49.732Z,5.10
2017-11-01T06:12:16.572Z,5.60
2017-11-01T06:14:43.457Z,5.57
2017-11-01T06:17:10.339Z,4.47
2017-11-01T06:19:37.171Z,6.83
2017-11-01T06:22:04.048Z,7.07
2017-11-01T06:24:30.924Z,7.27
2017-11-01T06:26:57.805Z,10.90
2017-11-01T06:29:24.678Z,7.00
2017-11-01T06:31:51.558Z,7.50
2017-11-01T06:34:18.433Z,12.23
2017-11-01T06:36:47.012Z,13.23
2017-11-01T06:39:13.900Z,13.53
2017-11-01T06:41:40.735Z,5.33
2017-11-01T06:44:07.608Z,14.40
2017-11-01T06:46:34.484Z,9.83
2017-11-01T06:49:01.327Z,7.77
2017-11-01T06:51:28.169Z,9.90
2017-11-01T06:53:55.057Z,7.93
2017-11-01T06:56:21.851Z,8.87
2017-11-01T06:58:48.727Z,10.17
2017-11-01T07:01:15.619Z,11.37
2017-11-01T07:03:42.519Z,7.80
2017-11-01T07:06:09.326Z,12.70
2017-11-01T07:08:36.174Z,32.80
2017-11-01T07:11:03.010Z,12.30
2017-11-01T07:13:29.874Z,5.00
2017-11-01T07:15:56.751Z,10.13
2017-11-01T07:18:23.558Z,6.90
2017-11-01T07:20:50.374Z,7.77
2017-11-01T07:23:17.262Z,6.63
2017-11-01T07:25:44.077Z,10.33
2017-11-01T07:28:10.910Z,11.93
2017-11-01T07:30:37.792Z,9.20
2017-11-01T07:33:04.637Z,5.70
2017-11-01T07:35:31.449Z,3.27
2017-11-01T07:37:58.394Z,12.63
2017-11-01T07:40:25.221Z,10.93
2017-11-01T07:42:52.051Z,6.83
2017-11-01T07:45:18.891Z,7.70
2017-11-01T07:47:45.758Z,11.53
2017-11-01T07:50:12.633Z,5.27
2017-11-01T07:52:39.492Z,8.80
2017-11-01T07:55:06.321Z,7.07
2017-11-01T07:57:33.180Z,11.13
2017-11-01T08:00:00.020Z,10.03
2017-11-01T08:02:26.864Z,4.80
2017-11-01T08:04:53.697Z,7.80
2017-11-01T08:07:20.644Z,3.60
2017-11-01T08:09:47.443Z,4.03
2017-11-01T08:12:14.275Z,10.83
2017-11-01T08:14:41.111Z,16.30
2017-11-01T08:17:07.932Z,7.13
2017-11-01T08:19:34.740Z,3.80
2017-11-01T08:22:01.647Z,10.93
2017-11-01T08:24:28.478Z,10.20
2017-11-01T08:26:55.330Z,9.50
2017-11-01T08:29:22.177Z,9.33
2017-11-01T08:31:49.029Z,14.27
2017-11-01T08:34:15.857Z,5.83
2017-11-01T08:36:42.697Z,5.87
2017-11-01T08:39:09.542Z,7.03
2017-11-01T08:41:36.445Z,10.07
2017-11-01T08:44:03.285Z,8.33
2017-11-01T08:46:30.112Z,6.93
2017-11-01T08:48:57.218Z,4.43
2017-11-01T08:51:24.116Z,4.00
2017-11-01T08:53:50.958Z,7.70
2017-11-01T08:56:17.758Z,7.27
2017-11-01T08:58:44.643Z,7.70
2017-11-01T09:01:11.482Z,5.87
2017-11-01T09:03:38.315Z,11.83
2017-11-01T09:06:05.255Z,5.13
2017-11-01T09:08:32.080Z,7.03
2017-11-01T09:10:58.884Z,6.90
2017-11-01T09:13:25.755Z,13.00
2017-11-01T09:15:52.587Z,9.53
2017-11-01T09:18:19.408Z,6.20
2017-11-01T09:20:46.299Z,5.17
2017-11-01T09:23:13.108Z,7.70
2017-11-01T09:25:39.932Z,8.20
2017-11-01T09:28:11.291Z,10.03
2017-11-01T09:30:38.127Z,4.30
2017-11-01T09:33:04.943Z,6.40
2017-11-01T09:35:31.796Z,8.03
2017-11-01T09:37:58.625Z,16.27
2017-11-01T09:40:25.426Z,10.37
2017-11-01T09:42:55.281Z,8.20
2017-11-01T09:45:22.083Z,12.47
2017-11-01T09:47:48.926Z,3.70
2017-11-01T09:50:15.788Z,14.83
2017-11-01T09:52:42.648Z,11.40
2017-11-01T09:55:09.471Z,12.03
2017-11-01T09:57:36.544Z,10.77
2017-11-01T10:00:03.386Z,12.93
2017-11-01T10:02:30.167Z,6.37
2017-11-01T10:04:57.017Z,6.53
2017-11-01T10:07:23.850Z,17.50
2017-11-01T10:09:54.169Z,9.33
2017-11-01T10:12:21.610Z,9.93
2017-11-01T10:14:48.432Z,11.93
2017-11-01T10:17:15.231Z,13.57
2017-11-01T10:19:42.110Z,12.80
2017-11-01T10:22:08.964Z,15.33
2017-11-01T10:24:36.581Z,7.30
2017-11-01T10:27:04.295Z,9.50
2017-11-01T10:29:31.145Z,11.20
2017-11-01T10:31:58.055Z,13.70
2017-11-01T10:34:24.919Z,20.73
2017-11-01T10:36:51.730Z,12.93
2017-11-01T10:39:18.546Z,10.97
2017-11-01T10:41:45.401Z,17.57
2017-11-01T10:44:12.216Z,12.50
2017-11-01T10:46:39.058Z,15.50
2017-11-01T10:49:05.944Z,9.90
2017-11-01T10:51:32.813Z,13.40
2017-11-01T10:53:59.633Z,11.63
2017-11-01T10:56:26.485Z,7.57
2017-11-01T10:58:53.319Z,19.23
2017-11-01T11:01:20.135Z,12.87
2017-11-01T11:03:46.997Z,14.53
2017-11-01T11:06:13.848Z,18.47
2017-11-01T11:08:40.680Z,17.13
2017-11-01T11:11:07.539Z,22.30
2017-11-01T11:13:35.303Z,14.50
2017-11-01T11:16:02.130Z,24.80
2017-11-01T11:18:28.973Z,16.63
2017-11-01T11:20:55.799Z,18.10
2017-11-01T11:23:22.634Z,12.37
2017-11-01T11:25:49.495Z,10.80
2017-11-01T11:28:16.318Z,14.63
2017-11-01T11:30:43.139Z,23.27
2017-11-01T11:33:09.986Z,26.70
2017-11-01T11:35:36.826Z,20.93
2017-11-01T11:38:03.695Z,17.73
2017-11-01T11:40:30.574Z,17.20
2017-11-01T11:42:57.422Z,24.90
2017-11-01T11:45:24.261Z,37.00
2017-11-01T11:47:51.177Z,46.80
2017-11-01T11:50:18.043Z,28.00
2017-11-01T11:52:44.853Z,22.97
2017-11-01T11:55:11.739Z,33.43
2017-11-01T11:57:38.571Z,32.63
2017-11-01T12:00:05.421Z,22.77
2017-11-01T12:02:32.308Z,27.60
2017-11-01T12:04:59.378Z,36.50
2017-11-01T12:07:26.207Z,36.17
2017-11-01T12:09:53.095Z,30.07
2017-11-01T12:12:19.940Z,23.90
2017-11-01T12:14:46.754Z,32.03
2017-11-01T12:17:13.648Z,20.83
2017-11-01T12:19:40.487Z,22.27
2017-11-01T12:22:07.298Z,15.97
2017-11-01T12:24:34.184Z,24.37
2017-11-01T12:27:01.017Z,20.60
2017-11-01T12:29:27.872Z,40.50
2017-11-01T12:31:54.718Z,32.33
2017-11-01T12:34:21.557Z,31.27
2017-11-01T12:36:48.375Z,34.57
2017-11-01T12:39:15.250Z,26.83
2017-11-01T12:41:42.069Z,20.50
2017-11-01T12:44:08.871Z,26.50
2017-11-01T12:46:35.725Z,21.80
2017-11-01T12:49:02.544Z,15.53
2017-11-01T12:51:29.377Z,29.80
2017-11-01T12:53:56.247Z,27.97
2017-11-01T12:56:23.077Z,22.43
2017-11-01T12:58:49.912Z,28.03
2017-11-01T13:01:16.766Z,32.03
2017-11-01T13:03:43.599Z,26.40
2017-11-01T13:06:10.440Z,26.23
2017-11-01T13:08:37.300Z,20.20
2017-11-01T13:11:04.126Z,21.53
2017-11-01T13:13:30.924Z,23.23
2017-11-01T13:15:57.770Z,28.33
2017-11-01T13:18:24.607Z,45.37
2017-11-01T13:20:51.436Z,26.50
2017-11-01T13:23:18.296Z,35.87
2017-11-01T13:25:45.141Z,28.57
2017-11-01T13:28:11.966Z,20.33
2017-11-01T13:30:38.822Z,8.33
2017-11-01T13:33:05.623Z,19.27
2017-11-01T13:35:32.462Z,26.17
2017-11-01T13:37:59.289Z,27.33
2017-11-01T13:40:26.134Z,22.07
2017-11-01T13:42:52.946Z,18.73
2017-11-01T13:45:19.790Z,33.93
2017-11-01T13:47:46.601Z,26.67
2017-11-01T13:50:13.423Z,25.33
2017-11-01T13:52:40.263Z,28.70
2017-11-01T13:55:07.109Z,18.77
2017-11-01T13:57:33.954Z,32.10
2017-11-01T14:00:00.791Z,13.03
2017-11-01T14:02:27.631Z,30.80
2017-11-01T14:04:54.473Z,25.43
2017-11-01T14:07:21.350Z,27.97
2017-11-01T14:09:48.148Z,27.20
2017-11-01T14:12:15.007Z,36.00
2017-11-01T14:14:41.872Z,32.23
2017-11-01T14:17:08.693Z,20.50
2017-11-01T14:19:35.808Z,33.87
2017-11-01T14:22:02.981Z,39.63
2017-11-01T14:24:30.084Z,31.10
2017-11-01T14:26:57.219Z,32.33
2017-11-01T14:29:24.355Z,29.80
2017-11-01T14:31:51.206Z,20.30
2017-11-01T14:34:18.021Z,30.30
2017-11-01T14:36:44.870Z,25.13
2017-11-01T14:39:11.697Z,24.53
2017-11-01T14:41:38.527Z,21.13
2017-11-01T14:44:05.388Z,27.23
2017-11-01T14:46:32.219Z,26.67
2017-11-01T14:48:59.027Z,29.40
2017-11-01T14:51:25.903Z,17.10
2017-11-01T14:53:52.710Z,22.90
2017-11-01T14:56:19.544Z,27.87
2017-11-01T14:58:46.385Z,25.73
2017-11-01T15:01:13.219Z,11.40
2017-11-01T15:03:40.075Z,22.97
2017-11-01T15:06:06.940Z,25.50
2017-11-01T15:08:33.791Z,30.30
2017-11-01T15:11:00.597Z,52.23
2017-11-01T15:13:27.444Z,28.87
2017-11-01T15:15:54.277Z,20.80
2017-11-01T15:18:21.114Z,30.70
2017-11-01T15:20:47.971Z,21.57
2017-11-01T15:23:14.817Z,29.27
2017-11-01T15:25:41.632Z,25.40
2017-11-01T15:28:08.502Z,26.63
2017-11-01T15:30:35.293Z,29.07
2017-11-01T15:33:02.111Z,28.67
2017-11-01T15:35:28.950Z,23.83
2017-11-01T15:37:55.778Z,25.50
2017-11-01T15:40:22.597Z,21.00
2017-11-01T15:42:49.462Z,21.90
2017-11-01T15:45:16.305Z,24.77
2017-11-01T15:47:43.146Z,12.83
2017-11-01T15:50:10.006Z,22.37
2017-11-01T15:52:36.828Z,26.00
2017-11-01T15:55:03.648Z,24.53
2017-11-01T15:57:30.509Z,21.10
2017-11-01T15:59:57.341Z,27.57
2017-11-01T16:02:24.165Z,13.67
2017-11-01T16:04:51.009Z,33.03
2017-11-01T16:07:17.857Z,30.00
2017-11-01T16:09:44.670Z,31.60
2017-11-01T16:12:11.530Z,23.80
2017-11-01T16:14:38.370Z,32.77
2017-11-01T16:17:05.194Z,29.00
2017-11-01T16:19:32.063Z,32.47
2017-11-01T16:21:58.896Z,33.40
2017-11-01T16:24:25.758Z,39.60
2017-11-01T16:26:52.644Z,20.77
2017-11-01T16:29:19.548Z,21.37
2017-11-01T16:31:46.375Z,33.50
2017-11-01T16:34:13.261Z,31.47
2017-11-01T16:36:40.097Z,19.50
2017-11-01T16:39:06.967Z,31.33
2017-11-01T16:41:33.917Z,44.50
2017-11-01T16:44:00.741Z,20.20
2017-11-01T16:46:27.553Z,38.50
2017-11-01T16:48:54.412Z,35.63
2017-11-01T16:51:21.287Z,25.00
2017-11-01T16:53:48.159Z,24.77
2017-11-01T16:56:15.069Z,26.07
2017-11-01T16:58:41.918Z,28.77
2017-11-01T17:01:08.756Z,35.43
2017-11-01T17:03:35.704Z,35.73
2017-11-01T17:06:02.533Z,39.23
2017-11-01T17:08:29.391Z,40.67
2017-11-01T17:10:56.251Z,28.97
2017-11-01T17:13:23.063Z,34.57
2017-11-01T17:15:49.894Z,27.33
2017-11-01T17:18:17.035Z,26.33
2017-11-01T17:20:43.859Z,32.13
2017-11-01T17:23:10.695Z,35.27
2017-11-01T17:25:37.614Z,28.53
2017-11-01T17:28:04.473Z,30.87
2017-11-01T17:30:31.328Z,38.50
2017-11-01T17:32:58.215Z,40.20
2017-11-01T17:35:25.060Z,42.80
2017-11-01T17:37:51.888Z,31.07
2017-11-01T17:40:18.802Z,20.57
2017-11-01T17:42:46.318Z,35.30
2017-11-01T17:45:13.131Z,29.53
2017-11-01T17:47:41.991Z,33.63
2017-11-01T17:50:08.831Z,30.67
2017-11-01T17:52:36.082Z,36.80
2017-11-01T17:55:02.941Z,24.47
2017-11-01T17:57:31.649Z,42.60
2017-11-01T17:59:58.504Z,32.43
2017-11-01T18:02:25.342Z,32.97
2017-11-01T18:04:52.204Z,35.80
2017-11-01T18:07:19.045Z,26.33
2017-11-01T18:09:45.920Z,29.40
2017-11-01T18:12:12.766Z,31.03
2017-11-01T18:14:39.677Z,43.93
2017-11-01T18:17:06.537Z,39.73
2017-11-01T18:19:33.377Z,41.80
2017-11-01T18:22:00.195Z,26.87
2017-11-01T18:24:27.056Z,28.27
2017-11-01T18:26:53.927Z,28.03
2017-11-01T18:29:20.754Z,27.03
2017-11-01T18:31:47.602Z,24.83
2017-11-01T18:34:14.521Z,26.40
2017-11-01T18:36:41.364Z,30.13
2017-11-01T18:39:08.232Z,29.50
2017-11-01T18:41:35.449Z,32.50
2017-11-01T18:44:02.288Z,32.37
2017-11-01T18:46:29.163Z,22.23
2017-11-01T18:48:56.006Z,34.80
2017-11-01T18:51:22.834Z,27.87
2017-11-01T18:53:49.701Z,28.53
2017-11-01T18:56:16.552Z,22.20
2017-11-01T18:58:43.380Z,25.43
2017-11-01T19:01:10.227Z,17.30
2017-11-01T19:03:37.068Z,27.40
2017-11-01T19:06:03.910Z,30.43
2017-11-01T19:08:30.806Z,23.30
2017-11-01T19:10:57.648Z,25.67
2017-11-01T19:13:24.488Z,20.33
2017-11-01T19:15:51.390Z,24.33
2017-11-01T19:18:18.227Z,18.33
2017-11-01T19:20:45.112Z,19.30
2017-11-01T19:23:12.066Z,23.63
2017-11-01T19:25:38.911Z,23.33
2017-11-01T19:28:05.808Z,25.80
2017-11-01T19:30:32.798Z,25.53
2017-11-01T19:32:59.649Z,26.67
2017-11-01T19:35:26.483Z,22.53
2017-11-01T19:37:53.468Z,32.30
2017-11-01T19:40:20.319Z,19.47
2017-11-01T19:42:47.185Z,21.20
2017-11-01T19:45:14.061Z,15.70
2017-11-01T19:47:41.152Z,12.40
2017-11-01T19:50:08.020Z,14.80
2017-11-01T19:52:34.933Z,21.63
2017-11-01T19:55:01.784Z,14.97
2017-11-01T19:57:28.646Z,20.83
2017-11-01T19:59:55.493Z,27.93
2017-11-01T20:02:22.347Z,22.33
2017-11-01T20:04:49.250Z,23.53
2017-11-01T20:07:16.122Z,28.23
2017-11-01T20:09:42.989Z,22.33
2017-11-01T20:12:09.833Z,11.50
2017-11-01T20:14:36.682Z,15.03
2017-11-01T20:17:03.568Z,21.00
2017-11-01T20:19:30.448Z,5.10
2017-11-01T20:21:57.659Z,16.17
2017-11-01T20:24:24.508Z,18.10
2017-11-01T20:26:51.403Z,22.43
2017-11-01T20:29:18.419Z,15.70
2017-11-01T20:31:45.744Z,12.80
2017-11-01T20:34:13.199Z,21.40
2017-11-01T20:36:40.110Z,17.87
2017-11-01T20:39:07.009Z,22.70
2017-11-01T20:41:33.897Z,17.73
2017-11-01T20:44:00.833Z,19.50
2017-11-01T20:46:27.677Z,15.27
2017-11-01T20:48:54.516Z,20.13
2017-11-01T20:51:21.427Z,20.30
2017-11-01T20:53:48.309Z,14.50
2017-11-01T20:56:15.155Z,12.73
2017-11-01T20:58:42.064Z,23.20
2017-11-01T21:01:09.198Z,13.57
2017-11-01T21:03:36.087Z,18.67
2017-11-01T21:06:02.979Z,16.63
2017-11-01T21:08:30.169Z,26.20
2017-11-01T21:10:57.151Z,14.60
2017-11-01T21:13:24.011Z,10.67
2017-11-01T21:15:50.854Z,13.90
2017-11-01T21:18:17.761Z,8.27
2017-11-01T21:20:44.598Z,9.23
2017-11-01T21:23:11.644Z,9.70
2017-11-01T21:25:38.481Z,8.63
2017-11-01T21:28:05.319Z,13.00
2017-11-01T21:30:32.115Z,11.90
2017-11-01T21:32:58.940Z,6.23
2017-11-01T21:35:27.045Z,19.63
2017-11-01T21:37:53.858Z,7.20
2017-11-01T21:40:20.676Z,11.60
2017-11-01T21:42:47.551Z,6.97
2017-11-01T21:45:14.726Z,10.47
2017-11-01T21:47:41.531Z,9.53
2017-11-01T21:50:08.391Z,6.33
2017-11-01T21:52:35.222Z,6.93
2017-11-01T21:55:02.436Z,13.93
2017-11-01T21:57:29.276Z,7.80
2017-11-01T21:59:56.105Z,9.60
2017-11-01T22:02:22.971Z,6.60
2017-11-01T22:04:49.832Z,6.53
2017-11-01T22:07:16.639Z,12.90
2017-11-01T22:09:43.446Z,5.20
2017-11-01T22:12:10.313Z,10.03
2017-11-01T22:14:37.162Z,16.67
2017-11-01T22:17:04.015Z,4.93
2017-11-01T22:19:30.874Z,4.80
2017-11-01T22:21:57.701Z,15.77
2017-11-01T22:24:24.543Z,9.43
2017-11-01T22:26:51.389Z,5.40
2017-11-01T22:29:18.207Z,8.53
2017-11-01T22:31:45.022Z,5.90
2017-11-01T22:34:11.917Z,10.50
2017-11-01T22:36:38.751Z,8.27
2017-11-01T22:39:05.588Z,11.10
2017-11-01T22:41:32.422Z,6.30
2017-11-01T22:44:00.014Z,13.53
2017-11-01T22:46:26.833Z,8.03
2017-11-01T22:48:53.681Z,15.70
2017-11-01T22:51:21.195Z,13.33
2017-11-01T22:53:48.010Z,15.67
2017-11-01T22:56:14.894Z,4.10
2017-11-01T22:58:41.718Z,7.47
2017-11-01T23:01:08.567Z,15.40
2017-11-01T23:03:35.433Z,7.23
2017-11-01T23:06:02.249Z,11.37
2017-11-01T23:08:29.066Z,6.70
2017-11-01T23:10:55.926Z,9.20
